Time;durP1;ratioP1;P1;durP2;ratioP2;P2;SDS_P1;SDS_P2;PMS_P1;PMS_P2;Temp;Humidity;BMP_temperature;BMP_pressure;BME280_temperature;BME280_humidity;BME280_pressure;Samples;Min_cycle;Max_cycle;Signal;HPM_P1;HPM_P2
2023/04/28 00:01:20;;;;;;;5.90;3.13;;;14.30;99.90;;;;;;7384309;19;20142;-73
2023/04/28 00:03:47;;;;;;;7.10;3.60;;;14.30;99.90;;;;;;7387905;19;20158;-74
2023/04/28 00:06:13;;;;;;;6.78;3.30;;;14.30;99.90;;;;;;7385649;19;20146;-73
2023/04/28 00:08:39;;;;;;;6.45;3.15;;;14.30;99.90;;;;;;7386831;19;20171;-75
2023/04/28 00:11:09;;;;;;;8.10;3.47;;;14.30;99.90;;;;;;7385992;19;20681;-74
2023/04/28 00:13:36;;;;;;;5.10;3.55;;;14.20;99.90;;;;;;7384972;19;20147;-74
2023/04/28 00:16:02;;;;;;;5.95;3.15;;;14.20;99.90;;;;;;7386700;19;20130;-75
2023/04/28 00:18:27;;;;;;;5.28;3.17;;;14.00;99.90;;;;;;7386845;19;20142;-73
2023/04/28 00:20:54;;;;;;;7.43;3.75;;;14.10;99.90;;;;;;7386273;19;20131;-74
2023/04/28 00:23:20;;;;;;;8.45;3.40;;;14.10;99.90;;;;;;7385437;19;20134;-74
2023/04/28 00:25:53;;;;;;;3.42;2.75;;;14.20;99.90;;;;;;7388644;19;20139;-73
2023/04/28 00:28:19;;;;;;;5.22;3.15;;;13.90;99.90;;;;;;7386491;19;20262;-74
2023/04/28 00:30:46;;;;;;;7.00;3.20;;;13.80;99.90;;;;;;7386225;19;20142;-74
2023/04/28 00:33:12;;;;;;;6.13;3.22;;;13.90;99.90;;;;;;7385251;19;20142;-74
2023/04/28 00:35:38;;;;;;;7.35;3.00;;;14.00;99.90;;;;;;7386365;19;20185;-74
2023/04/28 00:38:04;;;;;;;6.60;3.17;;;14.10;99.90;;;;;;7385769;19;20222;-74
2023/04/28 00:40:38;;;;;;;6.57;2.78;;;14.20;99.90;;;;;;7383608;19;20565;-74
2023/04/28 00:43:04;;;;;;;7.20;3.10;;;14.20;99.90;;;;;;7385291;19;20670;-74
2023/04/28 00:45:30;;;;;;;5.60;2.88;;;14.10;99.90;;;;;;7375093;19;20243;-74
2023/04/28 00:47:57;;;;;;;7.88;3.35;;;14.10;99.90;;;;;;7384592;19;20482;-74
2023/04/28 00:50:24;;;;;;;9.43;3.42;;;14.20;99.90;;;;;;7382838;19;20584;-75
2023/04/28 00:52:52;;;;;;;4.10;2.85;;;14.10;99.90;;;;;;7385696;19;20142;-74
2023/04/28 00:55:19;;;;;;;4.25;3.10;;;14.10;99.90;;;;;;7377269;19;20177;-75
2023/04/28 00:57:45;;;;;;;6.43;3.05;;;14.00;99.90;;;;;;7383780;19;20194;-74
2023/04/28 01:00:13;;;;;;;8.25;3.33;;;13.90;99.90;;;;;;7378923;19;20134;-80
2023/04/28 01:02:39;;;;;;;5.55;2.85;;;13.90;99.90;;;;;;7384393;19;21100;-79
2023/04/28 01:05:07;;;;;;;4.90;2.72;;;13.80;99.90;;;;;;7386885;19;20138;-79
2023/04/28 01:07:36;;;;;;;6.30;3.17;;;14.00;99.90;;;;;;7384892;19;20154;-79
2023/04/28 01:10:02;;;;;;;4.15;2.33;;;14.10;99.90;;;;;;7386800;19;20138;-79
2023/04/28 01:12:29;;;;;;;4.97;2.50;;;14.00;99.90;;;;;;7385075;19;20164;-79
2023/04/28 01:14:55;;;;;;;4.93;2.63;;;14.00;99.90;;;;;;7391417;19;20162;-78
2023/04/28 01:17:21;;;;;;;9.75;2.30;;;14.10;99.90;;;;;;7392257;19;20526;-79
2023/04/28 01:19:46;;;;;;;6.00;2.22;;;14.00;99.90;;;;;;7392358;19;20870;-79
2023/04/28 01:22:15;;;;;;;4.80;2.30;;;14.10;99.90;;;;;;7391133;19;20238;-79
2023/04/28 01:24:41;;;;;;;3.65;2.28;;;13.90;99.90;;;;;;7390509;19;20151;-78
2023/04/28 01:27:07;;;;;;;3.08;2.22;;;13.90;99.90;;;;;;7392104;19;20146;-78
2023/04/28 01:29:33;;;;;;;4.80;2.47;;;14.00;99.90;;;;;;7393095;19;20156;-79
2023/04/28 01:31:58;;;;;;;3.13;2.38;;;14.00;99.90;;;;;;7392483;19;20591;-78
2023/04/28 01:34:25;;;;;;;2.78;2.35;;;14.10;99.90;;;;;;7390041;19;20219;-78
2023/04/28 01:36:51;;;;;;;7.18;2.72;;;13.90;99.90;;;;;;7392857;19;20248;-78
2023/04/28 01:39:16;;;;;;;4.03;2.25;;;13.90;99.90;;;;;;7392283;19;20215;-78
2023/04/28 01:41:42;;;;;;;3.17;2.22;;;14.00;99.90;;;;;;7393146;19;20230;-78
2023/04/28 01:44:08;;;;;;;2.60;2.30;;;13.90;99.90;;;;;;7391103;19;20543;-79
2023/04/28 01:46:34;;;;;;;6.80;2.95;;;14.00;99.90;;;;;;7392285;19;20476;-78
2023/04/28 01:49:00;;;;;;;6.13;2.70;;;14.10;99.90;;;;;;7392465;19;20670;-78
2023/04/28 01:51:26;;;;;;;4.50;2.55;;;14.10;99.90;;;;;;7391369;19;20158;-78
2023/04/28 01:53:51;;;;;;;4.47;2.67;;;14.00;99.90;;;;;;7393290;19;20998;-79
2023/04/28 01:56:55;;;;;;;5.40;2.42;;;13.80;99.90;;;;;;7391765;19;20502;-79
2023/04/28 01:59:20;;;;;;;4.32;2.40;;;13.90;99.90;;;;;;7392781;19;20143;-79
2023/04/28 02:01:46;;;;;;;3.60;2.40;;;14.00;99.90;;;;;;7392863;19;20130;-79
2023/04/28 02:04:12;;;;;;;5.68;2.90;;;14.10;99.90;;;;;;7394407;19;20563;-78
2023/04/28 02:06:38;;;;;;;3.92;2.22;;;14.10;99.90;;;;;;7394205;19;20134;-78
2023/04/28 02:09:03;;;;;;;6.45;2.45;;;14.10;99.90;;;;;;7396384;19;20182;-78
2023/04/28 02:11:29;;;;;;;3.20;2.60;;;14.10;99.90;;;;;;7398935;19;20173;-78
2023/04/28 02:13:55;;;;;;;3.72;2.38;;;14.00;99.90;;;;;;7393235;19;20138;-78
2023/04/28 02:16:20;;;;;;;5.45;2.85;;;14.10;99.90;;;;;;7391495;19;20135;-78
2023/04/28 02:18:46;;;;;;;7.68;3.00;;;13.80;99.90;;;;;;7391175;19;20178;-78
2023/04/28 02:21:12;;;;;;;5.00;2.70;;;13.90;99.90;;;;;;7393202;19;20142;-79
2023/04/28 02:23:39;;;;;;;5.45;3.00;;;14.00;99.90;;;;;;7390604;19;20147;-78
2023/04/28 02:26:05;;;;;;;3.92;2.70;;;14.00;99.90;;;;;;7387698;19;20154;-79
2023/04/28 02:28:31;;;;;;;3.80;2.65;;;14.00;99.90;;;;;;7390492;19;20135;-79
2023/04/28 02:31:08;;;;;;;4.50;2.92;;;14.00;99.90;;;;;;7389907;19;20152;-79
2023/04/28 02:33:34;;;;;;;3.67;2.20;;;14.20;99.90;;;;;;7391602;19;20149;-79
2023/04/28 02:36:04;;;;;;;3.53;2.63;;;14.00;99.90;;;;;;7393032;19;20651;-78
2023/04/28 02:38:30;;;;;;;3.78;2.50;;;14.10;99.90;;;;;;7389877;19;20135;-78
2023/04/28 02:41:01;;;;;;;4.10;2.70;;;14.10;99.90;;;;;;7389621;19;20564;-78
2023/04/28 02:43:27;;;;;;;5.55;2.50;;;14.20;99.90;;;;;;7390355;19;20138;-79
2023/04/28 02:45:54;;;;;;;5.70;2.85;;;14.30;99.90;;;;;;7390030;19;20221;-79
2023/04/28 02:48:20;;;;;;;3.13;2.30;;;14.20;99.90;;;;;;7389362;19;20138;-78
2023/04/28 02:50:46;;;;;;;4.82;2.72;;;14.00;99.90;;;;;;7389929;19;20223;-78
2023/04/28 02:53:12;;;;;;;6.50;2.65;;;13.90;99.90;;;;;;7388628;19;21055;-78
2023/04/28 02:55:37;;;;;;;6.55;2.75;;;13.90;99.90;;;;;;7388920;19;20151;-79
2023/04/28 02:58:03;;;;;;;5.25;3.00;;;13.90;99.90;;;;;;7388955;19;20474;-78
2023/04/28 03:00:29;;;;;;;6.63;2.90;;;14.10;99.90;;;;;;7389167;19;20126;-78
2023/04/28 03:02:55;;;;;;;6.55;2.95;;;14.20;99.90;;;;;;7388894;19;20130;-78
2023/04/28 03:05:21;;;;;;;5.25;2.65;;;14.30;99.90;;;;;;7388251;19;20127;-78
2023/04/28 03:07:47;;;;;;;3.80;2.90;;;14.30;99.90;;;;;;7390862;19;20134;-78
2023/04/28 03:10:13;;;;;;;7.13;3.00;;;14.40;99.90;;;;;;7389823;19;20619;-78
2023/04/28 03:12:38;;;;;;;4.65;2.78;;;14.30;99.90;;;;;;7389251;19;20154;-78
2023/04/28 03:15:07;;;;;;;4.35;2.67;;;14.30;99.90;;;;;;7386805;19;20150;-77
2023/04/28 03:17:33;;;;;;;8.48;3.03;;;14.30;99.90;;;;;;7388488;19;20157;-78
2023/04/28 03:19:59;;;;;;;4.85;3.42;;;14.40;99.90;;;;;;7389809;19;20134;-78
2023/04/28 03:22:25;;;;;;;4.65;2.97;;;14.40;99.90;;;;;;7389993;19;20138;-79
2023/04/28 03:24:50;;;;;;;4.93;3.00;;;14.30;99.90;;;;;;7389051;19;20222;-78
2023/04/28 03:27:16;;;;;;;4.43;3.08;;;14.30;99.90;;;;;;7388349;19;20142;-79
2023/04/28 03:29:42;;;;;;;4.47;3.10;;;14.20;99.90;;;;;;7389784;19;20148;-80
2023/04/28 03:32:07;;;;;;;4.47;3.10;;;14.20;99.90;;;;;;7389282;19;20441;-78
2023/04/28 03:34:33;;;;;;;4.30;3.30;;;14.10;99.90;;;;;;7386751;19;20146;-78
2023/04/28 03:36:59;;;;;;;4.80;2.63;;;14.10;99.90;;;;;;7389197;19;20166;-79
2023/04/28 03:39:24;;;;;;;4.68;3.20;;;14.00;99.90;;;;;;7389176;19;20131;-78
2023/04/28 03:41:50;;;;;;;6.90;3.67;;;14.00;99.90;;;;;;7388330;19;20147;-78
2023/04/28 03:44:16;;;;;;;3.92;3.05;;;14.00;99.90;;;;;;7389308;19;20134;-78
2023/04/28 03:46:42;;;;;;;3.92;3.15;;;13.80;99.90;;;;;;7390980;19;20139;-78
2023/04/28 03:49:07;;;;;;;4.82;2.80;;;13.50;99.90;;;;;;7390257;19;20135;-79
2023/04/28 03:51:33;;;;;;;4.03;2.53;;;13.60;99.90;;;;;;7388965;19;20173;-78
2023/04/28 03:53:59;;;;;;;3.65;2.92;;;13.80;99.90;;;;;;7387594;19;20170;-78
2023/04/28 03:56:25;;;;;;;3.60;2.90;;;13.90;99.90;;;;;;7387380;19;20130;-78
2023/04/28 03:58:51;;;;;;;4.05;2.92;;;13.80;99.90;;;;;;7390004;19;20129;-78
2023/04/28 04:01:16;;;;;;;3.47;2.95;;;13.90;99.90;;;;;;7387259;19;20594;-78
2023/04/28 04:03:43;;;;;;;4.90;2.92;;;14.00;99.90;;;;;;7388291;19;20655;-78
2023/04/28 04:06:08;;;;;;;4.20;3.03;;;13.80;99.90;;;;;;7388316;19;20190;-79
2023/04/28 04:08:34;;;;;;;5.47;2.80;;;13.90;99.90;;;;;;7387769;19;20880;-80
2023/04/28 04:11:00;;;;;;;4.15;3.15;;;13.90;99.90;;;;;;7387682;19;20131;-80
2023/04/28 04:13:26;;;;;;;4.53;2.92;;;13.80;99.90;;;;;;7387177;19;20904;-79
2023/04/28 04:15:51;;;;;;;4.47;2.50;;;13.60;99.90;;;;;;7387231;19;20142;-79
2023/04/28 04:18:17;;;;;;;3.15;2.58;;;13.60;99.90;;;;;;7388412;19;20135;-80
2023/04/28 04:20:43;;;;;;;5.65;3.00;;;13.80;99.90;;;;;;7387692;19;20134;-80
2023/04/28 04:23:09;;;;;;;5.15;3.30;;;14.00;99.90;;;;;;7386412;19;20146;-79
2023/04/28 04:25:35;;;;;;;4.35;3.25;;;13.80;99.90;;;;;;7385987;19;20130;-79
2023/04/28 04:28:01;;;;;;;5.93;2.90;;;13.80;99.90;;;;;;7386182;19;20497;-79
2023/04/28 04:30:27;;;;;;;4.35;3.00;;;13.80;99.90;;;;;;7386691;19;20166;-79
2023/04/28 04:32:52;;;;;;;3.97;2.60;;;14.00;99.90;;;;;;7386145;19;20682;-79
2023/04/28 04:35:18;;;;;;;4.30;2.88;;;14.00;99.90;;;;;;7384362;19;20138;-81
2023/04/28 04:37:44;;;;;;;4.43;2.92;;;14.00;99.90;;;;;;7386504;19;20131;-80
2023/04/28 04:40:10;;;;;;;3.83;2.88;;;14.00;99.90;;;;;;7388597;19;20479;-80
2023/04/28 04:42:35;;;;;;;4.53;2.97;;;14.00;99.90;;;;;;7382553;19;20154;-80
2023/04/28 04:45:01;;;;;;;4.10;3.10;;;14.20;99.90;;;;;;7388604;19;20436;-79
2023/04/28 04:47:27;;;;;;;3.83;3.10;;;14.00;99.90;;;;;;7386663;19;20178;-80
2023/04/28 04:49:53;;;;;;;3.88;2.67;;;13.90;99.90;;;;;;7386578;19;20171;-79
2023/04/28 04:52:18;;;;;;;3.97;3.10;;;14.00;99.90;;;;;;7386278;19;20142;-79
2023/04/28 04:54:45;;;;;;;3.83;2.90;;;14.00;99.90;;;;;;7384529;19;20135;-79
2023/04/28 04:57:11;;;;;;;5.90;2.97;;;14.00;99.90;;;;;;7387380;19;20135;-79
2023/04/28 04:59:37;;;;;;;5.28;3.28;;;13.90;99.90;;;;;;7387289;19;20142;-80
2023/04/28 05:02:02;;;;;;;8.45;2.67;;;13.90;99.90;;;;;;7381576;19;20247;-78
2023/04/28 05:04:28;;;;;;;4.93;3.13;;;14.00;99.90;;;;;;7384629;19;20638;-82
2023/04/28 05:06:54;;;;;;;4.80;3.40;;;14.00;99.90;;;;;;7384032;19;20234;-80
2023/04/28 05:09:21;;;;;;;4.22;3.30;;;14.00;99.90;;;;;;7386225;19;20142;-81
2023/04/28 05:11:48;;;;;;;4.57;3.05;;;14.00;99.90;;;;;;7380861;19;20294;-81
2023/04/28 05:14:14;;;;;;;6.57;3.13;;;14.10;99.90;;;;;;7384529;19;20154;-81
2023/04/28 05:16:41;;;;;;;10.00;5.03;;;14.10;99.90;;;;;;7387027;19;20139;-83
2023/04/28 05:19:06;;;;;;;5.60;3.90;;;14.30;99.90;;;;;;7386286;19;20137;-80
2023/04/28 05:21:32;;;;;;;5.65;3.17;;;14.10;99.90;;;;;;7384296;19;20210;-80
2023/04/28 05:24:01;;;;;;;6.35;3.47;;;14.00;99.90;;;;;;7384626;19;20143;-82
2023/04/28 05:26:26;;;;;;;3.45;2.38;;;13.90;99.90;;;;;;7385582;19;20135;-82
2023/04/28 05:28:53;;;;;;;3.42;2.70;;;14.00;99.90;;;;;;7387257;19;20127;-80
2023/04/28 05:31:18;;;;;;;5.88;2.78;;;14.10;99.90;;;;;;7385394;19;20134;-80
2023/04/28 05:33:44;;;;;;;6.22;2.72;;;14.20;99.90;;;;;;7383568;19;20164;-81
2023/04/28 05:36:10;;;;;;;4.13;2.60;;;14.20;99.90;;;;;;7383868;19;20138;-80
2023/04/28 05:38:36;;;;;;;4.43;2.65;;;14.30;99.90;;;;;;7382756;19;20155;-80
2023/04/28 05:41:02;;;;;;;5.22;2.72;;;14.20;99.90;;;;;;7384692;19;20154;-81
2023/04/28 05:43:28;;;;;;;3.50;2.42;;;14.30;99.90;;;;;;7381982;19;20139;-81
2023/04/28 05:45:53;;;;;;;4.28;3.00;;;14.20;99.90;;;;;;7382595;19;20135;-80
2023/04/28 05:48:20;;;;;;;4.32;3.20;;;14.30;99.90;;;;;;7384329;19;20130;-81
2023/04/28 05:50:46;;;;;;;3.65;2.83;;;14.00;99.90;;;;;;7386892;19;20145;-80
2023/04/28 05:53:12;;;;;;;3.70;2.40;;;14.10;99.90;;;;;;7387596;19;20142;-80
2023/04/28 05:55:37;;;;;;;5.80;3.85;;;13.90;99.90;;;;;;7388785;19;20137;-79
2023/04/28 05:58:03;;;;;;;7.93;5.55;;;14.00;99.90;;;;;;7391762;19;20141;-81
2023/04/28 06:00:30;;;;;;;3.33;2.60;;;13.90;99.90;;;;;;7390268;19;20147;-80
2023/04/28 06:02:56;;;;;;;3.10;2.60;;;13.80;99.90;;;;;;7393859;19;20135;-80
2023/04/28 06:05:22;;;;;;;5.32;2.53;;;13.70;99.90;;;;;;7393313;19;20150;-79
2023/04/28 06:07:47;;;;;;;3.60;2.83;;;13.90;99.90;;;;;;7391897;19;20825;-79
2023/04/28 06:10:13;;;;;;;3.20;2.50;;;14.00;99.90;;;;;;7393807;19;20148;-79
2023/04/28 06:12:39;;;;;;;6.28;2.80;;;14.00;99.90;;;;;;7390513;19;20610;-81
2023/04/28 06:15:05;;;;;;;3.50;2.90;;;14.10;99.90;;;;;;7389129;19;20176;-80
2023/04/28 06:17:32;;;;;;;5.20;3.65;;;14.10;99.90;;;;;;7391005;19;20134;-80
2023/04/28 06:19:58;;;;;;;6.18;3.20;;;14.10;99.90;;;;;;7391834;19;20773;-80
2023/04/28 06:22:24;;;;;;;4.43;3.40;;;14.10;99.90;;;;;;7389669;19;20126;-79
2023/04/28 06:24:51;;;;;;;3.88;3.25;;;14.20;99.90;;;;;;7390954;19;20151;-80
2023/04/28 06:27:16;;;;;;;5.65;3.75;;;14.30;99.90;;;;;;7393450;19;20158;-79
2023/04/28 06:29:43;;;;;;;4.07;2.92;;;14.20;99.90;;;;;;7391997;19;20482;-79
2023/04/28 06:32:08;;;;;;;5.95;3.40;;;14.20;99.90;;;;;;7389364;19;20147;-79
2023/04/28 06:34:34;;;;;;;4.70;3.40;;;14.00;99.90;;;;;;7386997;19;20154;-79
2023/04/28 06:37:00;;;;;;;6.60;3.28;;;14.10;99.90;;;;;;7391573;19;20517;-78
2023/04/28 06:39:27;;;;;;;5.95;3.78;;;14.10;99.90;;;;;;7389872;19;20141;-79
2023/04/28 06:41:53;;;;;;;6.22;4.20;;;14.00;99.90;;;;;;7389417;19;20150;-79
2023/04/28 06:44:18;;;;;;;6.82;4.10;;;14.00;99.90;;;;;;7389669;19;20145;-79
2023/04/28 06:46:44;;;;;;;5.68;3.35;;;14.00;99.90;;;;;;7390806;19;20424;-78
2023/04/28 06:49:10;;;;;;;4.85;4.10;;;14.00;99.90;;;;;;7392318;19;20206;-79
2023/04/28 06:51:36;;;;;;;6.50;3.65;;;14.00;99.90;;;;;;7390586;19;20214;-80
2023/04/28 06:54:02;;;;;;;4.80;3.38;;;14.00;99.90;;;;;;7387989;19;20138;-80
2023/04/28 06:56:28;;;;;;;4.00;3.60;;;13.90;99.90;;;;;;7392793;19;20139;-79
2023/04/28 06:58:55;;;;;;;6.35;3.55;;;13.80;99.90;;;;;;7394753;19;20134;-79
2023/04/28 07:01:21;;;;;;;4.20;3.08;;;13.80;99.90;;;;;;7391608;19;20146;-80
2023/04/28 07:03:47;;;;;;;5.43;3.40;;;13.90;99.90;;;;;;7393265;19;20162;-79
2023/04/28 07:06:13;;;;;;;5.03;3.72;;;14.00;99.90;;;;;;7392424;19;20122;-79
2023/04/28 07:08:41;;;;;;;4.65;3.88;;;13.80;99.90;;;;;;7392434;19;20135;-78
2023/04/28 07:11:06;;;;;;;4.97;3.70;;;13.90;99.90;;;;;;7392192;19;20150;-79
2023/04/28 07:13:32;;;;;;;4.28;3.50;;;13.80;99.90;;;;;;7389565;19;20161;-79
2023/04/28 07:15:58;;;;;;;4.40;3.42;;;13.90;99.90;;;;;;7391036;19;20142;-80
2023/04/28 07:18:24;;;;;;;6.00;3.80;;;13.90;99.90;;;;;;7388440;19;20177;-79
2023/04/28 07:20:50;;;;;;;5.60;3.67;;;14.00;99.90;;;;;;7389808;19;20623;-79
2023/04/28 07:23:16;;;;;;;7.82;4.07;;;14.20;99.90;;;;;;7391096;19;20515;-80
2023/04/28 07:25:42;;;;;;;4.93;3.60;;;14.10;99.90;;;;;;7390179;19;20161;-80
2023/04/28 07:28:08;;;;;;;6.97;3.40;;;14.10;99.90;;;;;;7390515;19;20149;-81
2023/04/28 07:30:34;;;;;;;5.05;3.83;;;14.10;99.90;;;;;;7388526;19;20138;-79
2023/04/28 07:33:01;;;;;;;5.47;3.70;;;14.20;99.90;;;;;;7389272;19;20130;-79
2023/04/28 07:35:28;;;;;;;7.03;3.50;;;14.20;99.90;;;;;;7383492;19;20218;-78
2023/04/28 07:37:54;;;;;;;5.45;3.28;;;14.40;99.90;;;;;;7387524;19;20150;-78
2023/04/28 07:40:20;;;;;;;4.05;3.42;;;14.40;99.90;;;;;;7389788;19;20154;-79
2023/04/28 07:42:46;;;;;;;6.45;3.65;;;14.30;99.90;;;;;;7383242;19;20178;-80
2023/04/28 07:45:11;;;;;;;6.35;4.90;;;14.40;99.90;;;;;;7389180;19;20993;-81
2023/04/28 07:47:38;;;;;;;7.10;4.68;;;14.50;99.90;;;;;;7389542;19;20134;-79
2023/04/28 07:50:06;;;;;;;6.32;3.40;;;14.50;99.90;;;;;;7389266;19;20475;-78
2023/04/28 07:52:32;;;;;;;6.18;2.92;;;14.40;99.90;;;;;;7386946;19;20745;-79
2023/04/28 07:54:59;;;;;;;13.18;9.07;;;14.70;99.90;;;;;;7387426;19;20162;-79
2023/04/28 07:57:25;;;;;;;8.90;6.38;;;14.50;99.90;;;;;;7389024;19;20147;-79
2023/04/28 07:59:51;;;;;;;5.47;3.40;;;14.50;99.90;;;;;;7386938;19;20135;-79
2023/04/28 08:02:19;;;;;;;4.47;3.25;;;14.70;99.90;;;;;;7389789;19;20588;-78
2023/04/28 08:04:45;;;;;;;3.78;2.90;;;14.70;99.90;;;;;;7386285;19;20157;-78
2023/04/28 08:07:12;;;;;;;6.20;3.95;;;14.60;99.90;;;;;;7387579;19;20141;-78
2023/04/28 08:09:38;;;;;;;7.05;4.13;;;14.70;99.90;;;;;;7391183;19;20158;-79
2023/04/28 08:12:04;;;;;;;8.30;5.63;;;14.60;99.90;;;;;;7387907;19;20140;-79
2023/04/28 08:14:30;;;;;;;3.47;3.00;;;14.60;99.90;;;;;;7385514;19;20126;-80
2023/04/28 08:16:56;;;;;;;7.50;3.67;;;14.60;99.90;;;;;;7388760;19;20145;-79
2023/04/28 08:19:22;;;;;;;5.70;3.50;;;14.60;99.90;;;;;;7389967;19;20536;-79
2023/04/28 08:21:48;;;;;;;6.38;3.35;;;14.60;99.90;;;;;;7388706;19;20461;-79
2023/04/28 08:24:14;;;;;;;6.32;3.53;;;14.70;99.90;;;;;;7385568;19;20146;-79
2023/04/28 08:26:40;;;;;;;3.53;2.70;;;14.70;99.90;;;;;;7386669;19;20143;-79
2023/04/28 08:29:05;;;;;;;6.15;3.00;;;14.70;99.90;;;;;;7386555;19;20190;-78
2023/04/28 08:31:31;;;;;;;6.93;4.55;;;14.70;99.90;;;;;;7387347;19;20151;-79
2023/04/28 08:33:57;;;;;;;9.30;5.20;;;14.70;99.90;;;;;;7384383;19;20833;-80
2023/04/28 08:36:25;;;;;;;9.55;5.45;;;14.60;99.90;;;;;;7386940;19;20169;-78
2023/04/28 08:38:54;;;;;;;10.43;5.80;;;14.50;99.90;;;;;;7385478;19;20138;-78
2023/04/28 08:41:20;;;;;;;7.90;5.70;;;14.30;99.90;;;;;;7378194;19;20453;-80
2023/04/28 08:43:47;;;;;;;8.82;5.90;;;14.20;99.90;;;;;;7378607;19;20146;-79
2023/04/28 08:46:13;;;;;;;8.05;5.90;;;14.10;99.90;;;;;;7380538;19;20139;-79
2023/04/28 08:48:42;;;;;;;6.68;5.38;;;14.00;99.90;;;;;;7382030;19;20139;-77
2023/04/28 08:51:09;;;;;;;5.45;4.40;;;14.10;99.90;;;;;;7387955;19;20142;-79
2023/04/28 08:53:37;;;;;;;9.57;5.03;;;14.00;99.90;;;;;;7378394;19;21001;-79
2023/04/28 08:56:05;;;;;;;6.53;5.55;;;14.00;99.90;;;;;;7380416;19;20242;-79
2023/04/28 08:58:34;;;;;;;7.68;5.55;;;14.10;99.90;;;;;;7383001;19;20150;-78
2023/04/28 09:01:03;;;;;;;7.85;5.88;;;14.10;99.90;;;;;;7386260;19;20190;-79
2023/04/28 09:03:33;;;;;;;7.30;4.75;;;14.20;99.90;;;;;;7383793;19;20247;-78
2023/04/28 09:06:01;;;;;;;6.78;5.45;;;14.20;99.90;;;;;;7388396;19;20167;-79
2023/04/28 09:08:27;;;;;;;6.57;4.75;;;14.20;99.90;;;;;;7384288;19;20130;-80
2023/04/28 09:13:37;;;;;;;6.30;5.10;;;14.00;99.90;;;;;;7384556;19;20317;-80
2023/04/28 09:16:03;;;;;;;9.15;5.00;;;14.10;99.90;;;;;;7386671;19;20146;-80
2023/04/28 09:18:32;;;;;;;6.07;4.18;;;14.20;99.90;;;;;;7384024;19;20142;-79
2023/04/28 09:21:08;;;;;;;6.18;4.00;;;14.30;99.90;;;;;;7385554;19;20267;-80
2023/04/28 09:23:49;;;;;;;5.97;4.88;;;14.40;99.90;;;;;;7394435;19;20142;-79
2023/04/28 09:26:15;;;;;;;6.28;4.22;;;14.50;99.90;;;;;;7392787;19;20126;-79
2023/04/28 09:28:41;;;;;;;7.18;4.68;;;14.50;99.90;;;;;;7384548;19;20279;-79
2023/04/28 09:31:26;;;;;;;7.95;4.95;;;14.60;99.90;;;;;;7386115;19;20575;-80
2023/04/28 09:33:59;;;;;;;6.22;5.05;;;14.70;99.90;;;;;;7387128;19;20142;-79
2023/04/28 09:36:28;;;;;;;8.05;5.43;;;14.70;99.90;;;;;;7393686;19;20127;-80
2023/04/28 09:38:58;;;;;;;7.25;5.22;;;14.70;99.90;;;;;;7393139;19;20134;-79
2023/04/28 09:41:41;;;;;;;10.10;5.57;;;14.70;99.90;;;;;;7387983;19;20142;-80
2023/04/28 09:44:14;;;;;;;7.35;4.85;;;14.80;99.90;;;;;;7394660;19;20146;-78
2023/04/28 09:46:41;;;;;;;7.82;4.40;;;14.90;99.90;;;;;;7402055;19;20149;-79
2023/04/28 09:49:08;;;;;;;6.00;5.25;;;15.00;99.90;;;;;;7393249;19;20276;-80
2023/04/28 09:51:34;;;;;;;10.30;5.53;;;15.20;99.90;;;;;;7387232;19;20168;-79
2023/04/28 09:54:01;;;;;;;7.32;5.07;;;15.30;99.90;;;;;;7390003;19;20243;-82
2023/04/28 09:56:31;;;;;;;6.85;4.78;;;15.40;99.90;;;;;;7391193;19;20131;-81
2023/04/28 09:58:59;;;;;;;11.05;5.47;;;15.60;99.90;;;;;;7392919;19;20154;-81
2023/04/28 10:01:30;;;;;;;10.93;6.97;;;15.70;99.90;;;;;;7391705;19;20146;-81
2023/04/28 10:03:56;;;;;;;8.45;6.10;;;15.80;99.90;;;;;;7391356;19;20146;-80
2023/04/28 10:06:24;;;;;;;8.38;6.30;;;15.80;99.90;;;;;;7391834;19;20494;-80
2023/04/28 10:08:50;;;;;;;9.50;6.07;;;15.90;99.90;;;;;;7387425;19;20163;-81
2023/04/28 10:11:17;;;;;;;7.78;6.35;;;15.90;99.90;;;;;;7386628;19;20146;-81
2023/04/28 10:13:43;;;;;;;8.85;7.05;;;16.00;99.90;;;;;;7385857;19;20257;-81
2023/04/28 10:16:09;;;;;;;9.35;6.50;;;16.00;99.90;;;;;;7390531;19;20135;-80
2023/04/28 10:18:36;;;;;;;7.55;6.22;;;15.90;99.90;;;;;;7390239;19;20158;-80
2023/04/28 10:21:03;;;;;;;9.48;7.20;;;15.80;99.90;;;;;;7391114;19;20134;-81
2023/04/28 10:23:51;;;;;;;13.95;9.93;;;15.80;99.90;;;;;;7392404;19;20138;-80
2023/04/28 10:26:18;;;;;;;13.05;7.40;;;16.10;99.90;;;;;;7391955;19;20571;-80
2023/04/28 10:28:49;;;;;;;8.65;6.32;;;16.30;99.90;;;;;;7388054;19;20173;-78
2023/04/28 10:31:22;;;;;;;8.18;6.05;;;16.20;99.90;;;;;;7388878;19;20163;-80
2023/04/28 10:33:48;;;;;;;7.80;5.82;;;16.20;99.90;;;;;;7392036;19;20143;-79
2023/04/28 10:36:51;;;;;;;9.40;5.60;;;16.40;99.90;;;;;;7395415;19;20138;-78
2023/04/28 10:39:17;;;;;;;8.48;5.20;;;16.50;99.90;;;;;;7390359;19;20118;-80
2023/04/28 10:41:46;;;;;;;6.35;4.60;;;16.70;99.90;;;;;;7385921;19;20189;-79
2023/04/28 10:44:27;;;;;;;5.45;4.45;;;16.70;99.90;;;;;;7397746;19;20145;-80
2023/04/28 10:47:08;;;;;;;6.90;4.50;;;16.70;99.90;;;;;;7389375;19;20137;-82
2023/04/28 10:50:00;;;;;;;5.80;4.18;;;16.70;99.90;;;;;;7390922;19;20230;-81
2023/04/28 10:52:39;;;;;;;4.40;3.60;;;16.80;99.90;;;;;;7391994;19;20630;-79
2023/04/28 10:55:36;;;;;;;5.10;3.20;;;16.70;99.90;;;;;;7397325;19;20154;-74
2023/04/28 10:58:14;;;;;;;3.75;2.58;;;16.80;99.90;;;;;;7388767;19;20142;-75
2023/04/28 11:00:40;;;;;;;4.10;2.70;;;16.90;99.90;;;;;;7388569;19;20206;-74
2023/04/28 11:03:06;;;;;;;5.18;2.60;;;17.10;99.90;;;;;;7390075;19;20198;-74
2023/04/28 11:05:34;;;;;;;1.58;1.30;;;17.10;99.90;;;;;;7390735;19;20503;-74
2023/04/28 11:08:25;;;;;;;1.67;1.58;;;17.20;99.90;;;;;;7388870;19;20166;-73
2023/04/28 11:11:16;;;;;;;1.42;0.82;;;17.30;99.90;;;;;;7388905;19;20159;-74
2023/04/28 11:13:42;;;;;;;0.52;0.50;;;17.30;99.90;;;;;;7387022;19;20143;-76
2023/04/28 11:16:08;;;;;;;2.22;1.50;;;17.50;99.90;;;;;;7389344;19;20614;-74
2023/04/28 11:18:58;;;;;;;2.22;0.80;;;17.60;99.90;;;;;;7389811;19;20139;-74
2023/04/28 11:21:27;;;;;;;0.55;0.55;;;17.60;99.90;;;;;;7388452;19;20158;-74
2023/04/28 11:23:53;;;;;;;1.10;0.70;;;17.60;99.90;;;;;;7387566;19;20144;-75
2023/04/28 11:26:19;;;;;;;1.40;0.80;;;17.40;99.90;;;;;;7387981;19;20605;-74
2023/04/28 11:28:53;;;;;;;0.80;0.75;;;17.40;99.90;;;;;;7388320;19;20229;-74
2023/04/28 11:31:21;;;;;;;3.42;1.45;;;17.40;99.90;;;;;;7387984;19;20141;-75
2023/04/28 11:33:58;;;;;;;1.00;0.80;;;17.50;99.90;;;;;;7388392;19;20135;-75
2023/04/28 11:36:27;;;;;;;0.90;0.80;;;17.60;99.90;;;;;;7386308;19;20144;-75
2023/04/28 11:38:55;;;;;;;1.20;0.70;;;17.70;99.90;;;;;;7386527;19;20127;-75
2023/04/28 11:41:22;;;;;;;0.50;0.50;;;17.70;99.90;;;;;;7383477;19;20505;-75
2023/04/28 11:43:48;;;;;;;2.90;0.60;;;17.70;99.90;;;;;;7384199;19;20154;-74
2023/04/28 11:46:23;;;;;;;1.20;0.77;;;17.80;99.90;;;;;;7386987;19;20206;-74
2023/04/28 11:49:01;;;;;;;5.70;3.97;;;17.80;99.90;;;;;;7387248;19;20169;-74
2023/04/28 11:51:28;;;;;;;3.95;2.53;;;17.70;99.90;;;;;;7387137;19;20169;-74
2023/04/28 11:53:53;;;;;;;1.00;0.85;;;17.70;99.90;;;;;;7383822;19;20258;-74
2023/04/28 11:56:20;;;;;;;2.03;1.08;;;17.90;99.90;;;;;;7388891;19;20165;-74
2023/04/28 11:58:58;;;;;;;9.25;6.20;;;18.00;99.90;;;;;;7382837;19;20141;-75
2023/04/28 12:01:23;;;;;;;1.92;1.45;;;18.10;99.90;;;;;;7389654;19;20602;-75
2023/04/28 12:03:49;;;;;;;2.20;1.80;;;18.00;99.90;;;;;;7385957;19;20142;-75
2023/04/28 12:06:18;;;;;;;2.78;1.45;;;18.10;99.90;;;;;;7386439;19;20150;-74
2023/04/28 12:08:44;;;;;;;1.42;1.30;;;18.20;99.90;;;;;;7389696;19;20667;-75
2023/04/28 12:11:12;;;;;;;1.92;1.08;;;18.20;99.90;;;;;;7383209;19;20256;-74
2023/04/28 12:13:39;;;;;;;3.88;3.38;;;18.20;99.90;;;;;;7379397;19;20154;-77
2023/04/28 12:16:08;;;;;;;2.33;1.35;;;18.20;99.90;;;;;;7385835;19;20438;-76
2023/04/28 12:18:37;;;;;;;0.50;0.50;;;18.20;99.90;;;;;;7386836;19;20142;-75
2023/04/28 12:21:04;;;;;;;1.52;0.90;;;18.20;99.90;;;;;;7386367;19;20138;-75
2023/04/28 12:23:33;;;;;;;1.35;1.00;;;18.20;99.90;;;;;;7386546;19;20164;-76
2023/04/28 12:26:01;;;;;;;2.17;1.30;;;18.20;99.90;;;;;;7386160;19;20154;-76
2023/04/28 12:28:38;;;;;;;1.27;1.10;;;18.20;99.90;;;;;;7386709;19;20142;-76
2023/04/28 12:31:07;;;;;;;1.00;0.90;;;18.20;99.90;;;;;;7384988;19;20678;-77
2023/04/28 12:33:37;;;;;;;1.10;0.75;;;18.30;99.90;;;;;;7384023;19;20170;-76
2023/04/28 12:36:04;;;;;;;1.95;1.13;;;18.50;99.90;;;;;;7385562;19;20154;-77
2023/04/28 12:38:31;;;;;;;8.10;5.03;;;18.30;99.90;;;;;;7386084;19;20439;-76
2023/04/28 12:40:57;;;;;;;3.95;2.92;;;18.30;99.90;;;;;;7383937;19;20492;-76
2023/04/28 12:43:24;;;;;;;2.60;1.38;;;18.20;99.90;;;;;;7385000;19;20130;-75
2023/04/28 12:45:51;;;;;;;0.55;0.50;;;18.20;99.90;;;;;;7385651;19;20187;-78
2023/04/28 12:48:18;;;;;;;1.55;1.20;;;18.20;99.90;;;;;;7386759;19;20422;-76
2023/04/28 12:50:44;;;;;;;1.60;1.02;;;18.40;99.90;;;;;;7385255;19;20247;-75